ADDS METAR Data INFO
IDs: Format: Raw Decoded Include TAF

Data at: 0434 UTC 24 Apr 2018

KVCT 240351Z AUTO 21007KT 10SM CLR 18/14 A3005 RMK AO2 SLP173 T01780139
KVCT 240251Z AUTO 20007KT 10SM CLR 19/14 A3003 RMK AO2 SLP166 T01890139 53018
KVCT 240151Z 13003KT 10SM CLR 21/13 A3001 RMK AO2 SLP159 T02060133
KVCT 240051Z 00000KT 10SM CLR 25/13 A2998 RMK AO2 SLP151 T02500128
KVCT 232351Z 00000KT 10SM CLR 28/11 A2997 RMK AO2 SLP148 T02830111 10294 20256 56013
KVCT 232251Z 34005KT 10SM CLR 29/11 A2998 RMK AO2 SLP149 T02890106
KVCT 232151Z VRB03KT 10SM CLR 28/11 A2999 RMK AO2 SLP154 T02830106
KVCT 232051Z 34005KT 10SM CLR 28/10 A3001 RMK AO2 SLP162 T02830100 58028
KVCT 231951Z VRB03KT 10SM CLR 28/10 A3005 RMK AO2 SLP173 T02780100
KVCT 231851Z 02003KT 10SM CLR 27/08 A3007 RMK AO2 SLP182 T02670083 $
KVCT 231751Z 03008KT 10SM CLR 26/09 A3010 RMK AO2 SLP190 T02560094 10256 20100 58008 $
KVCT 231651Z VRB06KT 10SM CLR 24/09 A3011 RMK AO2 SLP196 T02440089 $
KVCT 231551Z COR 36008KT 10SM FEW110 23/09 A3012 RMK AO2 SLP198 T02330094 $
KVCT 231451Z 01003KT 10SM SCT110 20/09 A3012 RMK AO2 SLP198 T02000094 51014
KVCT 231351Z 32003KT 10SM SCT100 18/13 A3012 RMK AO2 SLP198 T01780128
KVCT 231251Z 32005KT 10SM CLR 13/11 A3012 RMK AO2 SLP196 T01330111
KVCT 231152Z COR 34005KT 10SM FEW110 10/09 A3008 RMK AO2 T01000089
KVCT 231151Z AUTO 34004KT 10SM CLR 10/09 A3008 RMK AO2 SLP184 T01000089 10156 20100 53014
KVCT 231051Z AUTO 33004KT 10SM CLR 11/09 A3006 RMK AO2 SLP177 T01060094
KVCT 230951Z AUTO 02005KT 10SM CLR 12/11 A3004 RMK AO2 SLP171 T01220106
KVCT 230851Z AUTO 00000KT 10SM CLR 13/11 A3004 RMK AO2 SLP170 T01330111 58003
KVCT 230751Z AUTO 02003KT 10SM CLR 14/12 A3005 RMK AO2 SLP173 T01390117
KVCT 230651Z AUTO 01005KT 10SM CLR 14/12 A3005 RMK AO2 SLP175 T01440117
KVCT 230551Z AUTO 00000KT 10SM CLR 16/13 A3005 RMK AO2 SLP174 T01560128 10228 20144 402560144 53006
KVCT 230451Z AUTO 09003KT 10SM CLR 16/12 A3004 RMK AO2 SLP169 T01610122
KVCT 230351Z AUTO 00000KT 10SM CLR 15/13 A3004 RMK AO2 SLP172 T01500128
KVCT 230251Z AUTO 05005KT 10SM CLR 16/13 A3003 RMK AO2 SLP168 T01560128 51017
KVCT 230151Z 04005KT 10SM CLR 18/13 A3003 RMK AO2 SLP166 T01780133
KVCT 230051Z 36004KT 10SM CLR 19/12 A3001 RMK AO2 SLP162 T01940122
KVCT 222351Z 03011KT 10SM CLR 23/12 A2998 RMK AO2 SLP151 T02280122 10256 20222 55008
KVCT 222251Z 01012KT 10SM CLR 24/11 A2998 RMK AO2 SLP150 T02440111
KVCT 222151Z 35010KT 10SM CLR 25/11 A2998 RMK AO2 SLP149 T02500111
KVCT 222051Z 36013KT 10SM CLR 25/10 A3001 RMK AO2 SLP159 T02500100 58023
KVCT 221951Z 33010G18KT 10SM CLR 25/12 A3003 RMK AO2 SLP167 T02500117
KVCT 221851Z 01012G17KT 10SM CLR 23/12 A3005 RMK AO2 SLP174 T02330117
KVCT 221751Z 33012G19KT 10SM CLR 22/12 A3007 RMK AO2 SLP182 T02220117 10228 20144 58001
KVCT 221651Z 35011KT 10SM CLR 21/12 A3009 RMK AO2 SLP187 T02060122